CYRL

Red Lake Airport

Airport
ICAO code
CYRL
IATA Code
YRL
Summary
ICAO Region
NAM
ICAO Territory
Location

Cochenour, Ontario

Serving
Red Lake
Elevation
1266 ft
Coordinates
51° 4' 2" N , 93° 47' 35" W
KCC
Airport CFIT
Altimeter Temperature Error Correction
Metar
Observation
CYRL 271200Z 02003KT 15SM FEW015 M03/M04 A3030 RMK CF1 CF TR SLP283
Station
Red Lake, Ont.
Date/Time
2022-09-27 12:00:00
Wind direction
20°
Wind speed
03 kts
Lowest cloud amount
few clouds
Temperature
-3°C
Dew point
-4°C
Humidity
92%
Weather condition
n/a

Red Lake Airport is located 3 nm (5.6 km; 3.5 mi) north of Red Lake, Ontario, Canada.

Runways

Designator Length Width Surface Rops
8/26 1524 46 ASP No/No

Airport map

Aerial View

SKYbrary Partners:

Safety knowledge contributed by: